Time;durP1;ratioP1;P1;durP2;ratioP2;P2;SDS_P1;SDS_P2;PMS_P1;PMS_P2;Temp;Humidity;BMP_temperature;BMP_pressure;BME280_temperature;BME280_humidity;BME280_pressure;Samples;Min_cycle;Max_cycle;Signal;HPM_P1;HPM_P2
2021/05/18 00:02:04;;;;;;;2.93;2.30;;;9.40;99.90;;;;;;5037111;28;20178;-90
2021/05/18 00:04:29;;;;;;;3.37;2.50;;;9.40;99.90;;;;;;5026182;28;20209;-90
2021/05/18 00:06:55;;;;;;;3.33;2.70;;;9.30;99.90;;;;;;5039675;28;20228;-90
2021/05/18 00:12:06;;;;;;;4.97;4.47;;;9.30;99.90;;;;;;5053896;28;20217;-91
2021/05/18 00:14:34;;;;;;;5.50;3.33;;;9.30;99.90;;;;;;5020531;28;20276;-90
2021/05/18 00:16:59;;;;;;;3.87;2.97;;;9.30;99.90;;;;;;5057031;28;20292;-90
2021/05/18 00:19:25;;;;;;;5.57;3.37;;;9.30;99.90;;;;;;5055491;28;20221;-91
2021/05/18 00:21:51;;;;;;;3.97;3.57;;;9.30;99.90;;;;;;5039282;28;20228;-90
2021/05/18 00:24:17;;;;;;;5.73;2.53;;;9.30;99.90;;;;;;5057078;28;20267;-90
2021/05/18 00:26:43;;;;;;;2.50;2.20;;;9.40;99.90;;;;;;5041353;28;20232;-91
2021/05/18 00:29:09;;;;;;;4.10;2.80;;;9.40;99.90;;;;;;5057607;28;20773;-91
2021/05/18 00:31:35;;;;;;;3.77;2.80;;;9.40;99.90;;;;;;5057633;28;20226;-89
2021/05/18 00:34:02;;;;;;;3.77;3.47;;;9.50;99.90;;;;;;5075397;28;20235;-90
2021/05/18 00:36:28;;;;;;;3.43;2.50;;;9.50;99.90;;;;;;5040627;28;20286;-90
2021/05/18 00:38:54;;;;;;;6.27;3.27;;;9.50;99.90;;;;;;5056771;28;20228;-90
2021/05/18 00:41:20;;;;;;;6.33;3.30;;;9.50;99.90;;;;;;5025193;28;20182;-90
2021/05/18 00:43:46;;;;;;;4.83;3.43;;;9.40;99.90;;;;;;5040327;28;20227;-90
2021/05/18 00:46:12;;;;;;;3.80;2.73;;;9.40;99.90;;;;;;5074607;28;20224;-88
2021/05/18 00:48:38;;;;;;;3.73;2.37;;;9.40;99.90;;;;;;5072283;28;20627;-90
2021/05/18 00:51:08;;;;;;;4.70;2.73;;;9.40;99.90;;;;;;5056580;28;20221;-89
2021/05/18 00:53:35;;;;;;;9.07;3.40;;;9.40;99.90;;;;;;5071168;28;20196;-89
2021/05/18 00:56:05;;;;;;;6.87;4.03;;;9.40;99.90;;;;;;5074769;28;20192;-89
2021/05/18 00:58:38;;;;;;;5.10;2.70;;;9.40;99.90;;;;;;5056325;28;20224;-90
2021/05/18 01:01:14;;;;;;;2.37;1.93;;;9.40;99.90;;;;;;5055217;28;20588;-89
2021/05/18 01:03:41;;;;;;;2.73;2.10;;;9.40;99.90;;;;;;5057017;28;20224;-89
2021/05/18 01:09:07;;;;;;;3.03;2.53;;;9.50;99.90;;;;;;5044491;28;20236;-90
2021/05/18 01:11:33;;;;;;;6.67;2.50;;;9.50;99.90;;;;;;5073654;28;20192;-90
2021/05/18 01:14:05;;;;;;;3.83;2.93;;;9.60;99.90;;;;;;5058104;28;20192;-90
2021/05/18 01:16:33;;;;;;;3.47;2.20;;;9.60;99.90;;;;;;5054208;28;21183;-89
2021/05/18 01:18:59;;;;;;;3.83;3.00;;;9.70;99.90;;;;;;5057337;28;20223;-89
2021/05/18 01:21:25;;;;;;;3.17;2.43;;;9.70;99.90;;;;;;5054770;28;20274;-89
2021/05/18 01:23:51;;;;;;;6.03;2.53;;;9.70;99.90;;;;;;5072842;28;20319;-89
2021/05/18 01:26:17;;;;;;;4.03;3.00;;;9.80;99.90;;;;;;5075500;28;21004;-89
2021/05/18 01:28:44;;;;;;;4.00;2.93;;;9.80;99.90;;;;;;5051761;28;20287;-89
2021/05/18 01:31:13;;;;;;;3.80;2.80;;;9.80;99.90;;;;;;5050681;28;20232;-89
2021/05/18 01:33:39;;;;;;;4.40;2.70;;;9.90;99.90;;;;;;5049066;28;20225;-89
2021/05/18 01:36:08;;;;;;;4.63;3.23;;;9.90;99.90;;;;;;5051728;28;20224;-90
2021/05/18 01:38:52;;;;;;;3.20;2.60;;;10.00;99.90;;;;;;5048935;28;20685;-89
2021/05/18 01:44:03;;;;;;;2.87;2.57;;;10.10;99.90;;;;;;5052345;28;20229;-89
2021/05/18 01:46:29;;;;;;;3.40;2.57;;;10.10;99.90;;;;;;5053042;28;20220;-89
2021/05/18 01:48:58;;;;;;;3.40;2.47;;;10.10;99.90;;;;;;5052831;28;20229;-90
2021/05/18 01:51:34;;;;;;;3.47;2.40;;;10.10;99.90;;;;;;5053894;28;20771;-90
2021/05/18 01:54:12;;;;;;;4.17;2.30;;;10.10;99.90;;;;;;5055092;28;20273;-90
2021/05/18 01:59:08;;;;;;;3.30;1.70;;;10.20;99.90;;;;;;5056739;28;20178;-90
2021/05/18 02:01:35;;;;;;;6.07;2.90;;;10.10;99.90;;;;;;5051297;28;20209;-90
2021/05/18 02:04:02;;;;;;;2.27;2.07;;;10.10;99.90;;;;;;5050936;28;20253;-90
2021/05/18 02:06:28;;;;;;;2.50;1.90;;;10.10;99.90;;;;;;5054262;28;20240;-90
2021/05/18 02:08:55;;;;;;;2.73;2.13;;;10.10;99.90;;;;;;5048224;28;20225;-90
2021/05/18 02:11:21;;;;;;;4.57;2.27;;;10.00;99.90;;;;;;5051910;28;20531;-90
2021/05/18 02:13:49;;;;;;;2.17;1.97;;;10.00;99.90;;;;;;5035289;28;20233;-89
2021/05/18 02:16:32;;;;;;;2.40;1.90;;;9.90;99.90;;;;;;5051745;28;20272;-90
2021/05/18 02:19:18;;;;;;;2.43;2.23;;;9.90;99.90;;;;;;5023223;28;20999;-90
2021/05/18 02:22:04;;;;;;;2.07;1.97;;;9.90;99.90;;;;;;5038536;28;20221;-91
2021/05/18 02:24:48;;;;;;;2.03;1.83;;;9.80;99.90;;;;;;5060033;28;20319;-90
2021/05/18 02:27:14;;;;;;;2.30;1.60;;;9.80;99.90;;;;;;5052417;28;20252;-90
2021/05/18 02:29:40;;;;;;;2.77;2.00;;;9.80;99.90;;;;;;5037128;28;20188;-90
2021/05/18 02:32:07;;;;;;;2.27;2.07;;;9.80;99.90;;;;;;5038936;28;20195;-89
2021/05/18 02:34:33;;;;;;;2.57;2.17;;;9.70;99.90;;;;;;5039261;28;20225;-90
2021/05/18 02:37:01;;;;;;;3.03;2.70;;;9.70;99.90;;;;;;5036453;28;20224;-90
2021/05/18 02:39:26;;;;;;;2.70;2.30;;;9.70;99.90;;;;;;5038868;28;20225;-90
2021/05/18 02:41:52;;;;;;;3.60;2.10;;;9.70;99.90;;;;;;5020323;28;20587;-90
2021/05/18 02:44:34;;;;;;;3.73;2.97;;;9.60;99.90;;;;;;5056358;28;20666;-90
2021/05/18 02:49:44;;;;;;;7.50;3.23;;;9.50;99.90;;;;;;5072326;28;20277;-90
2021/05/18 02:52:10;;;;;;;3.63;2.80;;;9.40;99.90;;;;;;5055232;28;20366;-90
2021/05/18 02:54:36;;;;;;;2.50;2.17;;;9.30;99.90;;;;;;5037432;28;20267;-89
2021/05/18 02:57:05;;;;;;;2.53;2.33;;;9.30;99.90;;;;;;5023795;28;20216;-90
2021/05/18 02:59:31;;;;;;;2.90;2.10;;;9.20;99.90;;;;;;5051194;28;20197;-89
2021/05/18 03:01:59;;;;;;;7.03;2.90;;;9.20;99.90;;;;;;5050862;28;20193;-90
2021/05/18 03:04:30;;;;;;;2.43;1.93;;;9.20;99.90;;;;;;5049656;28;20225;-90
2021/05/18 03:06:56;;;;;;;5.47;3.03;;;9.10;99.90;;;;;;5050721;28;20216;-90
2021/05/18 03:09:24;;;;;;;5.20;2.57;;;9.10;99.90;;;;;;5051844;28;20240;-90
2021/05/18 03:11:52;;;;;;;3.03;2.37;;;9.10;99.90;;;;;;5052476;28;20213;-91
2021/05/18 03:14:18;;;;;;;2.40;2.10;;;9.10;99.90;;;;;;5062328;28;20361;-90
2021/05/18 03:16:46;;;;;;;4.80;2.27;;;9.20;99.90;;;;;;5052781;28;20208;-90
2021/05/18 03:19:13;;;;;;;4.67;3.10;;;9.20;99.90;;;;;;5052982;28;20350;-90
2021/05/18 03:21:40;;;;;;;4.03;2.53;;;9.20;99.90;;;;;;5072803;28;20421;-90
2021/05/18 03:24:07;;;;;;;2.50;2.30;;;9.20;99.90;;;;;;5035871;28;20232;-88
2021/05/18 03:26:35;;;;;;;4.50;3.27;;;9.30;99.90;;;;;;5053987;28;20210;-91
2021/05/18 03:29:11;;;;;;;3.30;3.00;;;9.30;99.90;;;;;;5062252;28;20229;-90
2021/05/18 03:34:38;;;;;;;2.10;1.90;;;9.40;99.90;;;;;;5071771;28;20216;-89
2021/05/18 03:37:10;;;;;;;4.37;2.97;;;9.50;99.90;;;;;;5072393;28;20213;-90
2021/05/18 03:39:37;;;;;;;5.77;2.50;;;9.50;99.90;;;;;;5069126;28;20277;-89
2021/05/18 03:45:11;;;;;;;3.07;2.27;;;9.60;99.90;;;;;;5075828;28;20265;-89
2021/05/18 04:04:04;;;;;;;3.50;2.40;;;9.90;99.90;;;;;;5062306;28;20224;-91
2021/05/18 04:17:15;;;;;;;6.90;2.83;;;9.80;99.90;;;;;;5062650;28;21062;-88
2021/05/18 04:19:47;;;;;;;3.43;2.70;;;10.00;99.90;;;;;;5058140;28;20208;-88
2021/05/18 04:41:40;;;;;;;1.97;1.83;;;10.00;99.90;;;;;;5057650;28;20255;-87
2021/05/18 05:06:18;;;;;;;4.13;2.40;;;11.60;99.90;;;;;;5052969;28;20240;-89
2021/05/18 05:16:25;;;;;;;2.90;2.00;;;11.80;99.90;;;;;;5036630;28;20221;-89
2021/05/18 05:18:51;;;;;;;6.30;3.60;;;11.90;99.90;;;;;;5047090;28;20230;-93
2021/05/18 05:21:20;;;;;;;3.30;2.90;;;11.90;99.90;;;;;;5046736;28;20279;-89
2021/05/18 05:23:47;;;;;;;4.40;3.17;;;12.00;99.90;;;;;;5033005;28;20226;-88
2021/05/18 05:26:13;;;;;;;2.63;2.23;;;11.90;99.90;;;;;;5045296;28;20204;-89
2021/05/18 05:28:38;;;;;;;3.37;2.70;;;12.00;99.90;;;;;;5047197;28;20233;-89
2021/05/18 05:31:04;;;;;;;6.93;3.23;;;12.30;99.90;;;;;;5046219;28;20221;-89
2021/05/18 05:33:30;;;;;;;3.47;2.27;;;12.60;99.90;;;;;;5031863;28;20793;-89
2021/05/18 05:35:55;;;;;;;4.63;2.87;;;12.70;99.90;;;;;;5028840;28;20228;-89
2021/05/18 05:38:23;;;;;;;3.80;2.83;;;13.00;99.90;;;;;;5048709;28;20181;-88
2021/05/18 05:40:49;;;;;;;4.13;3.00;;;13.30;99.90;;;;;;5029204;28;20233;-89
2021/05/18 05:43:15;;;;;;;4.63;3.67;;;13.40;99.90;;;;;;5035447;28;20259;-90
2021/05/18 05:45:40;;;;;;;5.20;3.47;;;13.30;99.90;;;;;;5052959;28;20747;-89
2021/05/18 05:48:09;;;;;;;4.20;2.40;;;13.10;99.90;;;;;;5054943;28;20256;-89
2021/05/18 05:50:34;;;;;;;4.47;2.50;;;12.80;99.90;;;;;;5071026;28;20542;-90
2021/05/18 05:53:00;;;;;;;9.40;2.27;;;12.50;99.90;;;;;;5058050;28;20664;-88
2021/05/18 05:55:26;;;;;;;8.67;2.23;;;12.50;99.90;;;;;;5039135;28;20208;-89
2021/05/18 05:57:52;;;;;;;5.07;2.50;;;12.50;99.90;;;;;;5039536;28;20307;-89
2021/05/18 06:00:19;;;;;;;3.23;1.80;;;12.20;99.90;;;;;;5054111;28;20355;-89
2021/05/18 06:02:44;;;;;;;2.43;1.70;;;12.10;99.90;;;;;;5071702;28;21128;-87
2021/05/18 06:05:10;;;;;;;2.40;1.67;;;12.10;99.90;;;;;;5038369;28;20289;-91
2021/05/18 06:07:36;;;;;;;2.77;2.10;;;12.10;99.90;;;;;;5052405;28;20231;-91
2021/05/18 06:10:19;;;;;;;2.57;2.20;;;12.20;99.90;;;;;;5020526;28;20590;-90
2021/05/18 06:15:34;;;;;;;6.10;2.23;;;12.20;99.90;;;;;;5045915;28;20217;-90
2021/05/18 06:29:57;;;;;;;5.67;2.23;;;12.10;99.90;;;;;;5074191;28;20244;-89
2021/05/18 06:43:12;;;;;;;2.33;1.90;;;12.50;99.90;;;;;;5043259;28;20229;-88
2021/05/18 06:46:24;;;;;;;4.97;1.77;;;12.80;99.90;;;;;;5026995;28;20226;-89
2021/05/18 06:48:26;;;;;;;3.93;2.17;;;13.20;99.90;;;;;;5040182;28;20601;-89
2021/05/18 06:50:52;;;;;;;2.60;2.00;;;13.60;99.90;;;;;;5019225;28;20225;-88
2021/05/18 06:53:18;;;;;;;1.70;1.37;;;13.50;99.90;;;;;;5053395;28;20208;-90
2021/05/18 06:55:44;;;;;;;9.37;2.03;;;13.50;99.90;;;;;;5050647;28;20235;-90
2021/05/18 06:58:13;;;;;;;1.83;1.73;;;13.20;99.90;;;;;;5031810;28;20765;-91
2021/05/18 07:00:43;;;;;;;5.63;1.77;;;13.20;99.90;;;;;;5035362;28;20401;-87
2021/05/18 07:03:11;;;;;;;11.17;2.50;;;13.30;99.90;;;;;;5016094;28;20348;-92
2021/05/18 07:10:33;;;;;;;6.00;2.90;;;13.30;99.90;;;;;;5050826;28;20259;-89
2021/05/18 07:12:59;;;;;;;2.13;1.37;;;12.90;99.90;;;;;;5016147;28;20679;-89
2021/05/18 07:15:27;;;;;;;4.00;1.97;;;12.70;99.90;;;;;;5051429;28;20623;-88
2021/05/18 07:17:54;;;;;;;2.90;2.43;;;13.30;99.90;;;;;;5039042;28;20275;-91
2021/05/18 07:20:20;;;;;;;2.80;2.23;;;14.90;99.90;;;;;;5056257;28;20224;-89
2021/05/18 07:22:47;;;;;;;6.07;2.00;;;17.20;99.90;;;;;;5056237;28;20323;-87
2021/05/18 07:25:13;;;;;;;2.60;1.60;;;18.30;99.90;;;;;;5054500;28;20658;-89
2021/05/18 07:27:39;;;;;;;3.40;2.90;;;19.00;99.90;;;;;;5019657;28;20273;-89
2021/05/18 07:30:07;;;;;;;1.63;1.53;;;19.70;99.90;;;;;;5037474;28;20243;-89
2021/05/18 07:32:32;;;;;;;2.03;1.90;;;20.90;99.90;;;;;;5054704;28;20177;-88
2021/05/18 07:34:58;;;;;;;2.37;2.17;;;21.10;99.90;;;;;;5055611;28;20236;-88
2021/05/18 07:37:24;;;;;;;2.93;1.93;;;19.90;99.90;;;;;;5051269;28;20243;-91
2021/05/18 07:39:51;;;;;;;1.70;1.60;;;20.00;99.90;;;;;;5057586;28;20299;-91
2021/05/18 07:42:16;;;;;;;2.17;1.60;;;18.60;99.90;;;;;;5032365;28;20220;-89
2021/05/18 07:44:42;;;;;;;1.87;1.77;;;16.60;99.90;;;;;;5040455;28;20190;-89
2021/05/18 07:47:08;;;;;;;2.10;1.90;;;15.90;99.90;;;;;;5036430;28;20852;-90
2021/05/18 07:49:43;;;;;;;2.23;2.03;;;14.80;99.90;;;;;;5020624;28;20214;-89
2021/05/18 08:05:59;;;;;;;2.53;1.60;;;18.30;99.90;;;;;;5003517;28;20294;-90
2021/05/18 08:08:25;;;;;;;2.93;2.00;;;20.10;99.90;;;;;;4999968;28;20186;-92
2021/05/18 08:10:58;;;;;;;2.83;1.93;;;18.60;99.90;;;;;;5034775;28;20218;-91
2021/05/18 08:13:24;;;;;;;1.40;1.30;;;17.00;99.90;;;;;;5037552;28;20226;-89
2021/05/18 08:18:51;;;;;;;1.87;1.50;;;15.20;99.90;;;;;;5054243;28;20217;-92
2021/05/18 10:36:04;;;;;;;2.80;2.27;;;19.00;99.90;;;;;;5051679;28;20230;-91
2021/05/18 10:38:39;;;;;;;3.17;2.60;;;19.40;99.90;;;;;;5019601;28;20181;-90
2021/05/18 10:41:17;;;;;;;2.40;1.47;;;19.60;99.90;;;;;;5052198;28;20173;-91
2021/05/18 10:43:45;;;;;;;2.27;2.07;;;19.20;99.90;;;;;;5042508;28;20224;-91
2021/05/18 10:46:13;;;;;;;2.23;1.93;;;19.40;99.90;;;;;;5043817;28;20236;-92
2021/05/18 10:48:39;;;;;;;2.80;1.80;;;19.50;99.90;;;;;;5048419;28;20213;-91
2021/05/18 10:51:20;;;;;;;1.90;1.70;;;19.80;99.90;;;;;;5068204;28;20268;-91
2021/05/18 10:54:14;;;;;;;3.80;1.40;;;19.50;99.90;;;;;;5067234;28;20569;-90
2021/05/18 10:57:01;;;;;;;2.13;1.70;;;19.20;99.90;;;;;;5049959;28;20199;-91
2021/05/18 10:59:38;;;;;;;1.53;1.43;;;20.00;99.90;;;;;;5068604;28;20189;-92
2021/05/18 11:02:12;;;;;;;4.87;1.80;;;20.70;99.90;;;;;;5053812;28;20224;-91
2021/05/18 11:04:45;;;;;;;3.20;1.93;;;20.50;99.90;;;;;;5071157;28;20323;-90
2021/05/18 11:07:16;;;;;;;3.20;1.60;;;19.80;99.90;;;;;;5060288;28;20249;-91
2021/05/18 11:09:42;;;;;;;1.93;1.50;;;20.10;99.90;;;;;;5052885;28;20216;-91
2021/05/18 11:12:14;;;;;;;1.50;1.40;;;19.00;99.90;;;;;;5038405;28;20738;-90
2021/05/18 11:14:41;;;;;;;2.63;1.93;;;18.40;99.90;;;;;;5051936;28;20193;-90
2021/05/18 11:17:24;;;;;;;2.50;1.73;;;18.40;99.90;;;;;;5072827;28;20200;-93
2021/05/18 11:20:22;;;;;;;2.43;1.70;;;19.20;99.90;;;;;;5070128;28;20213;-90
2021/05/18 11:26:04;;;;;;;1.57;1.47;;;18.40;99.90;;;;;;5071400;28;20252;-91
2021/05/18 11:28:41;;;;;;;3.93;2.40;;;18.40;99.90;;;;;;5037946;28;20226;-91
2021/05/18 11:31:19;;;;;;;5.17;2.47;;;18.20;99.90;;;;;;5016502;28;20401;-91
2021/05/18 11:33:50;;;;;;;3.70;2.50;;;18.80;99.90;;;;;;5010769;28;20341;-91
2021/05/18 11:36:22;;;;;;;2.33;1.77;;;18.80;99.90;;;;;;5018083;28;20664;-91
2021/05/18 11:38:53;;;;;;;2.30;1.67;;;18.40;99.90;;;;;;5033954;28;20183;-91
2021/05/18 11:41:24;;;;;;;4.37;2.13;;;17.30;99.90;;;;;;5013754;28;20648;-89
2021/05/18 11:43:51;;;;;;;4.67;2.30;;;17.10;99.90;;;;;;5014781;28;20755;-90
2021/05/18 11:46:16;;;;;;;3.47;2.23;;;17.50;99.90;;;;;;5012421;28;20219;-90
2021/05/18 11:48:53;;;;;;;2.57;2.10;;;17.30;99.90;;;;;;5008866;28;20230;-90
2021/05/18 11:51:19;;;;;;;2.43;1.60;;;16.80;99.90;;;;;;5008382;28;20226;-90
2021/05/18 11:53:48;;;;;;;1.90;1.80;;;15.90;99.90;;;;;;5009876;28;20187;-90
2021/05/18 11:56:29;;;;;;;2.03;1.50;;;15.70;99.90;;;;;;5012445;28;20191;-91
2021/05/18 11:59:06;;;;;;;2.03;1.53;;;16.00;99.90;;;;;;5030616;28;20219;-91
2021/05/18 12:01:50;;;;;;;3.10;2.37;;;15.70;99.90;;;;;;5008830;28;20215;-90
2021/05/18 12:04:18;;;;;;;1.57;1.47;;;15.30;99.90;;;;;;5043612;28;20274;-87
2021/05/18 12:07:00;;;;;;;2.10;1.70;;;15.40;99.90;;;;;;5033911;28;20209;-88
2021/05/18 12:09:28;;;;;;;1.90;1.20;;;15.40;99.90;;;;;;5034088;28;20211;-88
2021/05/18 12:11:56;;;;;;;2.03;1.40;;;14.90;99.90;;;;;;5035162;28;20206;-86
2021/05/18 12:14:26;;;;;;;1.57;1.30;;;15.30;99.90;;;;;;5033372;28;20267;-87
2021/05/18 12:16:53;;;;;;;2.20;1.57;;;15.60;99.90;;;;;;5032774;28;20226;-87
2021/05/18 12:19:20;;;;;;;1.40;1.30;;;15.90;99.90;;;;;;5031592;28;20255;-88
2021/05/18 12:21:49;;;;;;;1.50;1.40;;;16.20;99.90;;;;;;5026220;28;20226;-87
2021/05/18 12:24:17;;;;;;;4.50;1.83;;;16.30;99.90;;;;;;5028968;28;20815;-88
2021/05/18 12:27:01;;;;;;;1.67;1.57;;;16.20;99.90;;;;;;5029343;28;20209;-87
2021/05/18 12:29:45;;;;;;;1.73;1.63;;;16.00;99.90;;;;;;5069231;28;20205;-87
2021/05/18 12:32:15;;;;;;;2.77;2.00;;;16.10;99.90;;;;;;5053107;28;20208;-87
2021/05/18 12:34:43;;;;;;;3.90;2.10;;;16.20;99.90;;;;;;5054019;28;20723;-87
2021/05/18 12:37:09;;;;;;;1.50;1.33;;;16.30;99.90;;;;;;5068664;28;20255;-87
2021/05/18 12:39:41;;;;;;;1.97;1.43;;;15.90;99.90;;;;;;5032667;28;20602;-88
2021/05/18 12:42:09;;;;;;;2.37;1.80;;;15.80;99.90;;;;;;5050681;28;21324;-87
2021/05/18 12:44:56;;;;;;;2.40;2.20;;;15.50;99.90;;;;;;5030377;28;20216;-87
2021/05/18 12:47:37;;;;;;;3.13;2.60;;;15.90;99.90;;;;;;5064844;28;20269;-87
2021/05/18 12:50:12;;;;;;;2.60;2.07;;;16.00;99.90;;;;;;5049413;28;20295;-87
2021/05/18 12:52:40;;;;;;;2.40;2.07;;;15.90;99.90;;;;;;5063341;28;20209;-87
2021/05/18 12:55:24;;;;;;;5.83;2.17;;;15.90;99.90;;;;;;5047303;28;20217;-87
2021/05/18 12:57:51;;;;;;;3.37;2.30;;;15.70;99.90;;;;;;5049667;28;20595;-87
2021/05/18 13:00:43;;;;;;;3.53;2.47;;;16.00;99.90;;;;;;5048080;28;20576;-87
2021/05/18 13:03:20;;;;;;;2.03;1.57;;;16.00;99.90;;;;;;5065740;28;20332;-87
2021/05/18 13:05:54;;;;;;;1.90;1.50;;;16.50;99.90;;;;;;5051780;28;20190;-87
2021/05/18 13:08:22;;;;;;;2.53;1.60;;;16.30;99.90;;;;;;5069646;28;20204;-87
2021/05/18 13:13:42;;;;;;;2.37;2.00;;;16.40;99.90;;;;;;5066782;28;20224;-88
2021/05/18 13:16:11;;;;;;;2.50;1.97;;;16.80;99.90;;;;;;5034229;28;20216;-87
2021/05/18 13:18:50;;;;;;;4.77;1.70;;;16.80;99.90;;;;;;5037313;28;20292;-88
2021/05/18 13:21:52;;;;;;;2.07;1.77;;;16.90;99.90;;;;;;5061010;28;20214;-87
2021/05/18 13:26:48;;;;;;;2.10;1.70;;;16.90;99.90;;;;;;5050622;28;20193;-86
2021/05/18 13:29:17;;;;;;;3.63;2.07;;;16.80;99.90;;;;;;5053980;28;20221;-86
2021/05/18 13:31:44;;;;;;;1.83;1.17;;;16.60;99.90;;;;;;5034204;28;20221;-87
2021/05/18 13:34:10;;;;;;;2.83;1.80;;;16.40;99.90;;;;;;5038160;28;20221;-87
2021/05/18 13:36:37;;;;;;;2.63;1.60;;;16.50;99.90;;;;;;5052685;28;20217;-88
2021/05/18 13:39:09;;;;;;;4.03;2.43;;;16.30;99.90;;;;;;5034477;28;20224;-88
2021/05/18 13:41:35;;;;;;;4.20;2.20;;;16.30;99.90;;;;;;5051412;28;20186;-86
2021/05/18 13:44:03;;;;;;;1.53;1.43;;;16.20;99.90;;;;;;5051974;28;20257;-87
2021/05/18 13:46:29;;;;;;;2.30;1.97;;;16.20;99.90;;;;;;5057947;28;20894;-87
2021/05/18 13:48:54;;;;;;;2.70;2.00;;;16.40;99.90;;;;;;5053530;28;20216;-87
2021/05/18 13:51:21;;;;;;;2.47;1.70;;;16.40;99.90;;;;;;5034827;28;20214;-87
2021/05/18 13:53:48;;;;;;;3.10;1.90;;;16.60;99.90;;;;;;5033910;28;20304;-87
2021/05/18 13:56:13;;;;;;;3.20;1.90;;;16.80;99.90;;;;;;5050534;28;20189;-88
2021/05/18 13:58:39;;;;;;;2.10;1.67;;;16.50;99.90;;;;;;5031228;28;21027;-86
2021/05/18 14:01:09;;;;;;;2.50;1.50;;;16.50;99.90;;;;;;5020839;28;20699;-87
2021/05/18 14:03:36;;;;;;;4.83;1.80;;;16.30;99.90;;;;;;5073266;28;20224;-87
2021/05/18 14:06:03;;;;;;;2.27;1.80;;;16.00;99.90;;;;;;5050633;28;20240;-87
2021/05/18 14:08:36;;;;;;;4.13;1.63;;;15.80;99.90;;;;;;5050387;28;20198;-87
2021/05/18 14:11:11;;;;;;;3.07;2.23;;;15.70;99.90;;;;;;5051757;28;20189;-87
2021/05/18 14:13:43;;;;;;;2.93;2.20;;;15.50;99.90;;;;;;5052508;28;20705;-87
2021/05/18 14:16:10;;;;;;;2.97;1.80;;;15.60;99.90;;;;;;5050577;28;20230;-88
2021/05/18 14:18:37;;;;;;;3.67;2.10;;;15.40;99.90;;;;;;5051564;28;20283;-87
2021/05/18 14:21:04;;;;;;;2.97;1.87;;;15.30;99.90;;;;;;5055469;28;20213;-88
2021/05/18 14:26:09;;;;;;;4.23;2.17;;;15.30;99.90;;;;;;5036780;28;20185;-89
2021/05/18 14:28:36;;;;;;;2.80;1.90;;;15.40;99.90;;;;;;5051139;28;20730;-88
2021/05/18 14:31:05;;;;;;;3.70;2.40;;;15.50;99.90;;;;;;5053968;28;20216;-89
2021/05/18 14:33:31;;;;;;;1.77;1.63;;;15.60;99.90;;;;;;5055039;28;20573;-90
2021/05/18 14:35:56;;;;;;;2.50;2.27;;;15.80;99.90;;;;;;5068798;28;20223;-89
2021/05/18 14:38:23;;;;;;;5.70;2.87;;;16.00;99.90;;;;;;5039415;28;20275;-88
2021/05/18 14:56:39;;;;;;;3.53;3.10;;;16.10;99.90;;;;;;5055574;28;20320;-88
2021/05/18 14:59:05;;;;;;;3.73;2.90;;;16.10;99.90;;;;;;5073977;28;20183;-89
2021/05/18 15:01:31;;;;;;;3.13;2.57;;;16.40;99.90;;;;;;5020217;28;20486;-87
2021/05/18 15:03:56;;;;;;;4.27;2.67;;;16.50;99.90;;;;;;5052774;28;20564;-88
2021/05/18 15:06:22;;;;;;;4.53;2.40;;;16.50;99.90;;;;;;5051789;28;20216;-89
2021/05/18 15:08:48;;;;;;;5.67;3.27;;;16.40;99.90;;;;;;5068463;28;20744;-88
2021/05/18 15:11:13;;;;;;;4.90;3.10;;;16.20;99.90;;;;;;5051953;28;20188;-88
2021/05/18 15:13:39;;;;;;;4.93;3.10;;;15.90;99.90;;;;;;5053539;28;20225;-88
2021/05/18 15:16:05;;;;;;;4.33;2.90;;;15.60;99.90;;;;;;5070370;28;20224;-87
2021/05/18 15:18:33;;;;;;;6.07;3.30;;;15.90;99.90;;;;;;5019983;28;20235;-87
2021/05/18 15:21:00;;;;;;;3.90;3.10;;;15.90;99.90;;;;;;5020212;28;20313;-87
2021/05/18 15:23:27;;;;;;;6.57;2.87;;;15.50;99.90;;;;;;5037250;28;20246;-87
2021/05/18 15:25:54;;;;;;;6.73;3.87;;;15.10;99.90;;;;;;5051477;28;20224;-90
2021/05/18 15:28:19;;;;;;;9.80;2.43;;;15.50;99.90;;;;;;5070878;28;20244;-89
2021/05/18 15:30:46;;;;;;;4.87;1.87;;;15.60;99.90;;;;;;5035217;28;20557;-89
2021/05/18 15:33:11;;;;;;;3.30;1.87;;;15.50;99.90;;;;;;5036155;28;20669;-88
2021/05/18 15:35:37;;;;;;;2.63;1.67;;;15.60;99.90;;;;;;5067016;28;20230;-88
2021/05/18 15:38:03;;;;;;;3.17;2.17;;;15.50;99.90;;;;;;5057099;28;20565;-87
2021/05/18 15:40:30;;;;;;;1.73;1.50;;;15.60;99.90;;;;;;5040617;28;20221;-88
2021/05/18 15:42:56;;;;;;;2.00;1.60;;;15.70;99.90;;;;;;5056538;28;20311;-87
2021/05/18 15:45:22;;;;;;;3.73;1.27;;;15.60;99.90;;;;;;5072950;28;20626;-88
2021/05/18 15:47:47;;;;;;;2.53;1.90;;;15.60;99.90;;;;;;5056126;28;20192;-89
2021/05/18 15:50:15;;;;;;;2.13;1.93;;;15.70;99.90;;;;;;5075155;28;20189;-88
2021/05/18 15:52:41;;;;;;;2.17;1.30;;;15.70;99.90;;;;;;5022806;28;20356;-88
2021/05/18 15:55:07;;;;;;;2.87;1.90;;;15.70;99.90;;;;;;5057414;28;20226;-88
2021/05/18 15:57:33;;;;;;;3.97;1.83;;;15.60;99.90;;;;;;5039013;28;20296;-89
2021/05/18 15:59:59;;;;;;;1.40;1.23;;;15.60;99.90;;;;;;5055582;28;20324;-89
2021/05/18 16:02:25;;;;;;;2.83;1.03;;;15.30;99.90;;;;;;5026205;28;20675;-88
2021/05/18 16:04:51;;;;;;;1.30;1.20;;;15.00;99.90;;;;;;5056362;28;20330;-89
2021/05/18 16:07:18;;;;;;;3.50;1.90;;;15.20;99.90;;;;;;5041324;28;20744;-89
2021/05/18 16:09:44;;;;;;;3.10;1.90;;;15.40;99.90;;;;;;5058095;28;20232;-88
2021/05/18 16:12:11;;;;;;;4.47;1.90;;;15.40;99.90;;;;;;5055688;28;20217;-89
2021/05/18 16:14:37;;;;;;;1.67;1.57;;;15.50;99.90;;;;;;5072725;28;20191;-90
2021/05/18 16:17:04;;;;;;;2.73;1.90;;;15.40;99.90;;;;;;5074442;28;20181;-89
2021/05/18 16:19:30;;;;;;;5.07;2.77;;;14.80;99.90;;;;;;5056422;28;20315;-90
2021/05/18 16:21:56;;;;;;;3.97;1.73;;;14.50;99.90;;;;;;5071218;28;20250;-89
2021/05/18 16:24:24;;;;;;;4.73;2.47;;;14.50;99.90;;;;;;5037772;28;20220;-89
2021/05/18 16:26:53;;;;;;;1.57;1.47;;;14.60;99.90;;;;;;5073726;28;20217;-89
2021/05/18 16:29:18;;;;;;;2.53;2.33;;;14.60;99.90;;;;;;5078250;28;20328;-88
2021/05/18 16:31:44;;;;;;;3.83;2.27;;;14.60;99.90;;;;;;5041723;28;20300;-90
2021/05/18 16:34:10;;;;;;;2.03;1.67;;;14.60;99.90;;;;;;5042848;28;20220;-90
2021/05/18 16:36:36;;;;;;;4.97;1.70;;;14.50;99.90;;;;;;5043551;28;20832;-91
2021/05/18 16:39:04;;;;;;;1.43;1.33;;;14.40;99.90;;;;;;5075019;28;20217;-90
2021/05/18 16:41:31;;;;;;;2.73;2.20;;;14.10;99.90;;;;;;5055513;28;20219;-88
2021/05/18 16:43:57;;;;;;;2.07;1.80;;;13.90;99.90;;;;;;5072127;28;20265;-90
2021/05/18 16:46:23;;;;;;;2.67;1.77;;;14.00;99.90;;;;;;5056964;28;20221;-90
2021/05/18 16:48:49;;;;;;;1.97;1.77;;;14.10;99.90;;;;;;5037189;28;20231;-88
2021/05/18 16:51:16;;;;;;;3.03;1.93;;;14.10;99.90;;;;;;5055373;28;20221;-87
2021/05/18 16:53:42;;;;;;;2.70;1.53;;;14.40;99.90;;;;;;5055435;28;20653;-89
2021/05/18 16:56:09;;;;;;;1.60;0.73;;;14.30;99.90;;;;;;5043463;28;20227;-89
2021/05/18 16:58:36;;;;;;;1.20;0.90;;;14.20;99.90;;;;;;5072252;28;20279;-90
2021/05/18 17:01:03;;;;;;;7.23;1.80;;;13.90;99.90;;;;;;5056635;28;20213;-89
2021/05/18 17:03:28;;;;;;;1.73;1.40;;;13.60;99.90;;;;;;5075121;28;20229;-90
2021/05/18 17:05:54;;;;;;;1.90;1.63;;;13.70;99.90;;;;;;5074716;28;20560;-90
2021/05/18 17:08:20;;;;;;;0.90;0.90;;;13.80;99.90;;;;;;5025749;28;20237;-90
2021/05/18 17:10:46;;;;;;;3.33;1.60;;;13.90;99.90;;;;;;5047756;28;20233;-89
2021/05/18 17:13:12;;;;;;;2.63;1.63;;;14.00;99.90;;;;;;5041513;28;20282;-89
2021/05/18 17:15:38;;;;;;;1.53;1.20;;;14.10;99.90;;;;;;5055090;28;21189;-93
2021/05/18 17:18:04;;;;;;;3.73;1.43;;;14.20;99.90;;;;;;5074433;28;20219;-93
2021/05/18 17:20:34;;;;;;;1.40;1.30;;;14.00;99.90;;;;;;5054392;28;20646;-93
2021/05/18 17:23:00;;;;;;;1.27;1.17;;;13.70;99.90;;;;;;5076319;28;20188;-93
2021/05/18 17:25:26;;;;;;;3.67;1.53;;;13.60;99.90;;;;;;5055211;28;20252;-93
2021/05/18 17:27:52;;;;;;;1.73;1.30;;;13.60;99.90;;;;;;5056284;28;20312;-94
2021/05/18 17:30:20;;;;;;;1.10;0.93;;;13.60;99.90;;;;;;5056359;28;20226;-93
2021/05/18 17:32:46;;;;;;;1.80;1.57;;;13.60;99.90;;;;;;5054650;28;20224;-92
2021/05/18 17:35:12;;;;;;;1.80;1.30;;;13.50;99.90;;;;;;5022397;28;20308;-92
2021/05/18 17:37:41;;;;;;;1.33;1.17;;;13.50;99.90;;;;;;5057444;28;20685;-93
2021/05/18 17:40:08;;;;;;;1.47;1.33;;;13.40;99.90;;;;;;5041046;28;20217;-93
2021/05/18 17:42:34;;;;;;;12.70;1.17;;;13.50;99.90;;;;;;5061802;28;20231;-92
2021/05/18 17:45:05;;;;;;;1.33;1.23;;;13.50;99.90;;;;;;5070915;28;20229;-93
2021/05/18 17:47:32;;;;;;;2.57;1.37;;;13.40;99.90;;;;;;5037760;28;20491;-94
2021/05/18 17:49:58;;;;;;;1.77;1.30;;;13.50;99.90;;;;;;5052572;28;20173;-93
2021/05/18 17:52:24;;;;;;;1.67;1.10;;;13.60;99.90;;;;;;5056272;28;20572;-93
2021/05/18 17:54:49;;;;;;;1.20;1.10;;;13.70;99.90;;;;;;5071595;28;20225;-92
2021/05/18 17:57:16;;;;;;;4.63;1.40;;;13.60;99.90;;;;;;5073588;28;20220;-94
2021/05/18 17:59:41;;;;;;;1.27;1.17;;;13.40;99.90;;;;;;5037986;28;20182;-92
2021/05/18 18:02:09;;;;;;;1.50;1.30;;;13.30;99.90;;;;;;5039215;28;20203;-94